Detall de PIREP

Printer-friendly versionPDF version

[2011/08/17 17:55:00]
Flight IATA:CT1003
Pilot Number:026
Company ICAO:CAT
Aircraft Type:DC85/A
PAX:132
Departing Airport: EBAW
Destination Airport: LFMP
Alternate Airport:LFBO
Online: VATSIM
Route:NIK UN872 MEDIL UN872 KOVIN UY317 RESMI UN857 DIRMO UN855 OLRAK UZ131 BADAM UY27 SIJAN
Flight Level:F330
No Slew and time accel
No pause
Crash detect
Detect pilot in Cockpit between each 30 and 45 minutes
17:55 Zero fuel Weight: 178914 Lbs, Fuel Weight: 31602 Lbs
17:55 VATSIM:EBAW 171720Z 03006KT 340V060 9999 FEW044 22/15 Q1015
17:55 VATSIM:LFMP 171730Z AUTO 05011KT 9999 NSC 27/20 Q1011
17:56 VOICE CATALONIAN / CPT EBBU
18:06 Parking Brakes off
18:12 Take-off
18:12 Take off Weight: 209332 Lbs
18:12 Wind: 012º @ 008 Knots Heading: 107º
18:12 POS N51º 11´ 12´´ E004º 28´ 36´´
18:12 Flaps:3 at 168 Knots
18:12 Gear Up: 171 Knots
18:12 Flaps:2 at 209 Knots
18:13 Flaps:1 at212 Knots
18:14 Flaps:0 at 232 Knots
18:27 Wind:044º@023 Knots Heading: 201º Ground Speed: 389 Knots Altitude 18425 ft
18:42 Wind:053º@017 Knots Heading: 213º Ground Speed: 479 Knots Altitude 31341 ft
18:44 TOC
18:44 Fuel Weight: 22485 Lb
18:57 Wind:067º@025 Knots Heading: 165º Ground Speed: 476 Knots Altitude 32949 ft
19:09 TOD
19:09 Fuel Weight: 17261 Lb
19:12 Wind:176º@029 Knots Heading: 162º Ground Speed: 379 Knots Altitude 30482 ft
19:27 Wind:073º@017 Knots Heading: 183º Ground Speed: 268 Knots Altitude 7440 ft
19:38 Flaps:1 at 136 Knots
19:40 Gear Down: 198 Knots
19:41 Flaps:2 at 200 Knots
19:41 Flaps:3 at 164 Knots
19:42 Wind:022º@009 Knots Heading: 331º Ground Speed: 134 Knots Altitude 1145 ft
19:42 Flaps:4 at 132 Knots
19:42 Flaps:5 at 129 Knots
19:43 TouchDown:Rate -349 ft/min Speed: 118 Knots
19:43 VATSIM:LFMP 171930Z AUTO 02009KT 9999 FEW008 24/21 Q1012
19:43 Land
19:43 Wind:022º@009 Knots
19:43 Heading: 327º
19:43 Flight Duration: 01:31
19:43 Landing Weight: 192943 Lbs
19:43 POS N42º 44´ 45´´ E002º 52´ 07´´
19:52 Parking brakes on
19:52 Block to Block Duration: 01:46
19:52 Final Fuel: 13379 Lbls
19:52 Spent Fuel: 18223 Lbls
19:52 Flight Length: 576 NM
19:52 TOD Land Length: 166 NM

Exportar CSV

Powered by Drupal - Modified by Danger4k